Time;durP1;ratioP1;P1;durP2;ratioP2;P2;SDS_P1;SDS_P2;PMS_P1;PMS_P2;Temp;Humidity;BMP_temperature;BMP_pressure;BME280_temperature;BME280_humidity;BME280_pressure;Samples;Min_cycle;Max_cycle;Signal;HPM_P1;HPM_P2
2023/06/02 00:01:17;;;;;;;4.77;3.50;;;15.50;99.90;;;;;;4993106;28;20655;-76
2023/06/02 00:03:45;;;;;;;6.07;3.43;;;15.40;99.90;;;;;;4988242;28;20229;-77
2023/06/02 00:06:14;;;;;;;3.80;3.27;;;15.40;99.90;;;;;;4993747;28;20203;-77
2023/06/02 00:08:42;;;;;;;5.03;3.80;;;15.30;99.90;;;;;;4995541;28;20201;-77
2023/06/02 00:11:10;;;;;;;5.47;3.60;;;15.20;99.90;;;;;;4990771;28;20201;-76
2023/06/02 00:13:37;;;;;;;6.07;3.57;;;15.20;99.90;;;;;;4997840;28;20263;-77
2023/06/02 00:16:04;;;;;;;5.73;4.17;;;15.20;99.90;;;;;;5001073;28;20220;-77
2023/06/02 00:18:32;;;;;;;3.80;3.40;;;15.20;99.90;;;;;;4997630;28;20839;-77
2023/06/02 00:21:02;;;;;;;5.00;3.60;;;15.10;99.90;;;;;;4989057;28;20216;-77
2023/06/02 00:23:29;;;;;;;4.80;3.47;;;15.10;99.90;;;;;;4997526;28;20220;-77
2023/06/02 00:25:57;;;;;;;4.03;3.30;;;15.00;99.90;;;;;;4996028;28;20235;-77
2023/06/02 00:28:23;;;;;;;5.70;3.67;;;15.00;99.90;;;;;;4996581;28;20208;-77
2023/06/02 00:30:50;;;;;;;4.47;3.33;;;14.90;99.90;;;;;;4995720;28;20254;-76
2023/06/02 00:33:17;;;;;;;4.17;3.37;;;14.90;99.90;;;;;;4997215;28;20228;-76
2023/06/02 00:35:44;;;;;;;4.77;3.80;;;14.90;99.90;;;;;;4996950;28;20208;-77
2023/06/02 00:38:14;;;;;;;4.87;3.60;;;14.80;99.90;;;;;;4996379;28;20198;-77
2023/06/02 00:40:41;;;;;;;4.93;3.53;;;14.80;99.90;;;;;;4995569;28;20235;-77
2023/06/02 00:43:08;;;;;;;4.40;3.47;;;14.70;99.90;;;;;;4995211;28;20228;-76
2023/06/02 00:45:35;;;;;;;4.00;3.40;;;14.60;99.90;;;;;;4991337;28;20218;-76
2023/06/02 00:48:02;;;;;;;5.67;3.77;;;14.60;99.90;;;;;;4988014;28;20230;-77
2023/06/02 00:50:29;;;;;;;4.97;3.57;;;14.60;99.90;;;;;;4995985;28;20201;-76
2023/06/02 00:52:58;;;;;;;5.40;3.80;;;14.50;99.90;;;;;;4996979;28;20290;-77
2023/06/02 00:55:29;;;;;;;4.57;3.60;;;14.50;99.90;;;;;;4988248;28;20704;-77
2023/06/02 00:57:58;;;;;;;4.27;3.67;;;14.40;99.90;;;;;;4995324;28;20208;-77
2023/06/02 01:00:26;;;;;;;4.73;3.63;;;14.40;99.90;;;;;;4994731;28;20674;-76
2023/06/02 01:02:53;;;;;;;4.83;3.73;;;14.40;99.90;;;;;;4994736;28;20704;-76
2023/06/02 01:05:21;;;;;;;4.87;3.50;;;14.40;99.90;;;;;;4997417;28;20221;-77
2023/06/02 01:07:51;;;;;;;5.63;3.90;;;14.30;99.90;;;;;;4995467;28;20212;-77
2023/06/02 01:10:18;;;;;;;4.87;3.90;;;14.30;99.90;;;;;;4990047;28;20737;-76
2023/06/02 01:12:46;;;;;;;5.27;3.73;;;14.20;99.90;;;;;;4994308;28;20249;-77
2023/06/02 01:15:13;;;;;;;6.50;4.03;;;14.20;99.90;;;;;;4986216;28;20266;-77
2023/06/02 01:17:45;;;;;;;6.50;3.70;;;14.20;99.90;;;;;;4991508;28;20590;-77
2023/06/02 01:20:13;;;;;;;7.00;3.77;;;14.20;99.90;;;;;;4992871;28;20203;-76
2023/06/02 01:22:46;;;;;;;4.70;4.00;;;14.10;99.90;;;;;;4994079;28;20257;-77
2023/06/02 01:25:23;;;;;;;5.03;3.80;;;14.10;99.90;;;;;;4995294;28;20221;-77
2023/06/02 01:27:50;;;;;;;4.83;3.67;;;14.00;99.90;;;;;;4993630;28;20217;-76
2023/06/02 01:30:18;;;;;;;4.53;3.80;;;14.00;99.90;;;;;;4994453;28;20258;-76
2023/06/02 01:32:52;;;;;;;4.17;3.70;;;14.00;99.90;;;;;;4993793;28;20229;-77
2023/06/02 01:35:21;;;;;;;3.93;3.40;;;13.90;99.90;;;;;;4999585;28;20252;-77
2023/06/02 01:37:54;;;;;;;4.40;3.63;;;13.90;99.90;;;;;;4993397;28;20784;-76
2023/06/02 01:40:25;;;;;;;4.23;3.80;;;13.90;99.90;;;;;;4995115;28;20221;-76
2023/06/02 01:42:54;;;;;;;3.70;3.30;;;13.90;99.90;;;;;;4993376;28;20228;-77
2023/06/02 01:45:25;;;;;;;4.67;3.67;;;13.80;99.90;;;;;;4991437;28;20279;-77
2023/06/02 01:47:52;;;;;;;4.93;3.83;;;13.80;99.90;;;;;;4993707;28;20199;-77
2023/06/02 01:50:19;;;;;;;5.13;3.87;;;13.80;99.90;;;;;;4994566;28;20198;-77
2023/06/02 01:52:46;;;;;;;4.77;3.93;;;13.70;99.90;;;;;;4993874;28;20222;-77
2023/06/02 01:55:13;;;;;;;4.97;3.77;;;13.70;99.90;;;;;;4987820;28;20226;-76
2023/06/02 01:57:41;;;;;;;5.00;3.97;;;13.60;99.90;;;;;;4993709;28;20195;-76
2023/06/02 02:00:10;;;;;;;5.27;4.00;;;13.60;99.90;;;;;;4993554;28;20216;-76
2023/06/02 02:02:40;;;;;;;4.27;3.70;;;13.50;99.90;;;;;;5002731;28;20226;-76
2023/06/02 02:05:07;;;;;;;4.73;3.80;;;13.50;99.90;;;;;;4987152;28;20209;-76
2023/06/02 02:07:34;;;;;;;3.90;3.50;;;13.50;99.90;;;;;;4994339;28;20724;-76
2023/06/02 02:10:02;;;;;;;4.83;4.30;;;13.40;99.90;;;;;;4994097;28;20689;-77
2023/06/02 02:12:29;;;;;;;5.87;4.10;;;13.40;99.90;;;;;;4994662;28;20241;-76
2023/06/02 02:15:00;;;;;;;6.10;4.30;;;13.30;99.90;;;;;;4984879;28;20206;-77
2023/06/02 02:17:28;;;;;;;4.90;4.00;;;13.30;99.90;;;;;;4992437;28;20288;-77
2023/06/02 02:19:56;;;;;;;4.67;4.10;;;13.20;99.90;;;;;;4984926;28;20206;-77
2023/06/02 02:22:24;;;;;;;6.20;4.33;;;13.20;99.90;;;;;;4993704;28;20259;-77
2023/06/02 02:24:51;;;;;;;7.83;4.20;;;13.20;99.90;;;;;;4992275;28;20607;-76
2023/06/02 02:27:18;;;;;;;5.23;3.97;;;13.20;99.90;;;;;;4992514;28;20194;-76
2023/06/02 02:29:45;;;;;;;6.03;5.20;;;13.10;99.90;;;;;;4993137;28;20205;-77
2023/06/02 02:32:14;;;;;;;6.03;4.17;;;13.10;99.90;;;;;;4986065;28;20565;-76
2023/06/02 02:34:41;;;;;;;6.27;4.17;;;13.00;99.90;;;;;;4993528;28;20190;-75
2023/06/02 02:37:12;;;;;;;5.43;4.37;;;13.00;99.90;;;;;;4992374;28;20698;-77
2023/06/02 02:39:39;;;;;;;5.87;4.60;;;12.90;99.90;;;;;;4993000;28;20240;-77
2023/06/02 02:42:08;;;;;;;6.17;4.50;;;12.90;99.90;;;;;;4987330;28;20217;-81
2023/06/02 02:44:34;;;;;;;5.57;4.03;;;12.90;99.90;;;;;;4995314;28;20563;-77
2023/06/02 02:47:02;;;;;;;5.30;4.23;;;12.90;99.90;;;;;;4995131;28;20204;-77
2023/06/02 02:49:30;;;;;;;7.37;4.53;;;12.80;99.90;;;;;;4989217;28;20205;-77
2023/06/02 02:51:57;;;;;;;7.10;4.67;;;12.80;99.90;;;;;;4982318;28;20206;-77
2023/06/02 02:54:25;;;;;;;5.23;3.90;;;12.80;99.90;;;;;;4991532;28;20220;-76
2023/06/02 02:56:53;;;;;;;4.73;4.00;;;12.80;99.90;;;;;;4988620;28;20213;-77
2023/06/02 02:59:21;;;;;;;7.37;4.80;;;12.80;99.90;;;;;;4981443;28;20189;-77
2023/06/02 03:01:48;;;;;;;5.63;4.27;;;12.70;99.90;;;;;;4987245;28;20205;-77
2023/06/02 03:04:21;;;;;;;7.80;5.20;;;12.70;99.90;;;;;;4986262;28;20218;-77
2023/06/02 03:06:53;;;;;;;6.97;6.00;;;12.70;99.90;;;;;;4981128;28;20653;-76
2023/06/02 03:09:21;;;;;;;5.53;4.23;;;12.60;99.90;;;;;;4981299;28;20200;-77
2023/06/02 03:11:49;;;;;;;4.60;4.20;;;12.60;99.90;;;;;;5001546;28;20202;-77
2023/06/02 03:14:16;;;;;;;5.30;4.30;;;12.60;99.90;;;;;;4990483;28;20248;-76
2023/06/02 03:16:44;;;;;;;5.53;4.90;;;12.60;99.90;;;;;;4991337;28;20201;-77
2023/06/02 03:19:14;;;;;;;6.57;5.90;;;12.50;99.90;;;;;;4983482;28;20193;-77
2023/06/02 03:21:44;;;;;;;6.80;5.07;;;12.50;99.90;;;;;;5001571;28;20216;-79
2023/06/02 03:24:16;;;;;;;5.40;4.20;;;12.50;99.90;;;;;;4989028;28;20608;-75
2023/06/02 03:26:46;;;;;;;7.07;4.23;;;12.50;99.90;;;;;;4995926;28;20667;-78
2023/06/02 03:29:15;;;;;;;6.13;5.50;;;12.50;99.90;;;;;;5004699;28;20236;-79
2023/06/02 03:31:44;;;;;;;7.47;6.00;;;12.50;99.90;;;;;;5004526;28;20306;-80
2023/06/02 03:34:13;;;;;;;6.30;5.70;;;12.40;99.90;;;;;;5008023;28;20221;-78
2023/06/02 03:36:40;;;;;;;5.80;5.30;;;12.40;99.90;;;;;;5010441;28;20228;-79
2023/06/02 03:39:09;;;;;;;7.40;6.07;;;12.50;99.90;;;;;;5011124;28;20301;-79
2023/06/02 03:41:38;;;;;;;6.77;6.03;;;12.50;99.90;;;;;;5008973;28;20197;-78
2023/06/02 03:44:06;;;;;;;10.47;6.23;;;12.50;99.90;;;;;;5013629;28;20213;-78
2023/06/02 03:46:35;;;;;;;6.80;6.10;;;12.50;99.90;;;;;;5010677;28;20189;-78
2023/06/02 03:49:03;;;;;;;8.80;6.00;;;12.50;99.90;;;;;;5005111;28;20225;-79
2023/06/02 03:51:31;;;;;;;6.17;5.57;;;12.50;99.90;;;;;;5004651;28;20197;-79
2023/06/02 03:53:59;;;;;;;5.90;5.37;;;12.60;99.90;;;;;;5010743;28;20221;-78
2023/06/02 03:56:27;;;;;;;5.90;5.30;;;12.50;99.90;;;;;;5006004;28;20193;-77
2023/06/02 03:58:56;;;;;;;5.83;5.33;;;12.50;99.90;;;;;;4998921;28;20198;-79
2023/06/02 04:01:24;;;;;;;6.83;6.03;;;12.60;99.90;;;;;;4993173;28;20197;-76
2023/06/02 04:03:53;;;;;;;7.63;5.70;;;12.60;99.90;;;;;;4991495;28;20220;-75
2023/06/02 04:06:21;;;;;;;5.80;5.30;;;12.60;99.90;;;;;;4989825;28;20217;-76
2023/06/02 04:08:48;;;;;;;6.00;5.40;;;12.60;99.90;;;;;;4996993;28;20283;-77
2023/06/02 04:11:15;;;;;;;5.63;4.83;;;12.60;99.90;;;;;;4990404;28;20193;-76
2023/06/02 04:13:43;;;;;;;6.00;4.50;;;12.70;99.90;;;;;;5000154;28;20217;-76
2023/06/02 04:16:11;;;;;;;5.30;4.67;;;12.80;99.90;;;;;;4995429;28;20196;-78
2023/06/02 04:18:40;;;;;;;5.30;4.10;;;12.80;99.90;;;;;;4995174;28;20201;-76
2023/06/02 04:21:08;;;;;;;5.40;4.23;;;12.90;99.90;;;;;;4993266;28;20302;-76
2023/06/02 04:23:35;;;;;;;6.17;4.80;;;12.90;99.90;;;;;;4990401;28;20635;-76
2023/06/02 04:26:02;;;;;;;7.43;5.83;;;12.90;99.90;;;;;;4990992;28;20766;-76
2023/06/02 04:28:30;;;;;;;6.30;5.27;;;12.90;99.90;;;;;;4990988;28;20205;-76
2023/06/02 04:30:59;;;;;;;6.17;5.07;;;13.00;99.90;;;;;;4996118;28;20200;-76
2023/06/02 04:33:31;;;;;;;6.30;4.30;;;13.10;99.90;;;;;;4991630;28;20691;-76
2023/06/02 04:35:58;;;;;;;5.60;4.27;;;13.20;99.90;;;;;;4998575;28;20201;-76
2023/06/02 04:38:26;;;;;;;7.57;4.47;;;13.30;99.90;;;;;;4994119;28;20231;-76
2023/06/02 04:40:53;;;;;;;5.70;4.50;;;13.40;99.90;;;;;;5002120;28;20198;-76
2023/06/02 04:43:21;;;;;;;6.57;4.13;;;13.60;99.90;;;;;;4995816;28;20319;-76
2023/06/02 04:45:48;;;;;;;7.53;4.37;;;13.70;99.90;;;;;;4993917;28;20225;-76
2023/06/02 04:48:18;;;;;;;7.20;4.80;;;14.00;99.90;;;;;;4997099;28;20643;-76
2023/06/02 04:50:47;;;;;;;5.37;4.27;;;14.30;99.90;;;;;;4995898;28;20228;-76
2023/06/02 04:53:15;;;;;;;7.00;5.17;;;15.00;99.90;;;;;;4995139;28;20215;-76
2023/06/02 04:55:45;;;;;;;6.90;4.97;;;15.80;99.90;;;;;;4993150;28;20235;-76
2023/06/02 04:58:13;;;;;;;7.37;4.83;;;16.10;99.90;;;;;;5000247;28;20200;-76
2023/06/02 05:00:40;;;;;;;8.17;5.57;;;16.20;99.90;;;;;;4993735;28;20229;-76
2023/06/02 05:03:08;;;;;;;7.10;5.43;;;16.20;99.90;;;;;;4993378;28;20604;-76
2023/06/02 05:05:36;;;;;;;6.23;4.93;;;16.10;99.90;;;;;;4999121;28;20219;-76
2023/06/02 05:08:05;;;;;;;6.73;5.23;;;16.10;99.90;;;;;;4997954;28;20641;-77
2023/06/02 05:10:32;;;;;;;6.83;4.70;;;16.10;99.90;;;;;;5000602;28;20790;-77
2023/06/02 05:12:59;;;;;;;6.50;5.00;;;16.10;99.90;;;;;;4990763;28;20229;-77
2023/06/02 05:15:27;;;;;;;6.80;4.63;;;16.20;99.90;;;;;;4993241;28;20740;-76
2023/06/02 05:17:56;;;;;;;5.97;4.40;;;16.30;99.90;;;;;;4999792;28;20231;-77
2023/06/02 05:20:24;;;;;;;6.27;4.80;;;16.60;99.90;;;;;;4994942;28;20193;-76
2023/06/02 05:22:51;;;;;;;5.97;4.80;;;16.70;99.90;;;;;;5001097;28;20311;-76
2023/06/02 05:25:19;;;;;;;6.60;4.90;;;16.70;99.90;;;;;;4995691;28;20703;-76
2023/06/02 05:27:46;;;;;;;7.50;5.27;;;16.70;99.90;;;;;;4997807;28;20198;-76
2023/06/02 05:30:14;;;;;;;5.73;4.93;;;16.70;99.90;;;;;;4995991;28;20204;-77
2023/06/02 05:32:42;;;;;;;6.03;4.60;;;16.90;99.90;;;;;;4989421;28;20217;-76
2023/06/02 05:35:10;;;;;;;6.17;4.87;;;16.90;99.90;;;;;;4996099;28;20197;-77
2023/06/02 05:37:37;;;;;;;7.50;5.27;;;16.90;99.90;;;;;;4999192;28;20190;-77
2023/06/02 05:40:05;;;;;;;8.07;5.90;;;16.90;99.90;;;;;;4998044;28;20302;-76
2023/06/02 05:42:34;;;;;;;8.93;5.90;;;17.20;99.90;;;;;;4988902;28;20207;-77
2023/06/02 05:45:02;;;;;;;5.67;4.87;;;17.50;99.90;;;;;;4990273;28;20575;-76
2023/06/02 05:47:30;;;;;;;9.17;5.77;;;18.00;99.90;;;;;;4989330;28;20194;-77
2023/06/02 05:49:57;;;;;;;7.00;5.30;;;18.80;99.90;;;;;;4989864;28;20198;-77
2023/06/02 05:52:25;;;;;;;8.00;5.77;;;19.40;99.90;;;;;;4995198;28;20683;-76
2023/06/02 05:54:53;;;;;;;9.03;6.13;;;19.60;99.90;;;;;;4997649;28;20202;-77
2023/06/02 05:57:20;;;;;;;9.10;5.80;;;19.70;99.90;;;;;;4997406;28;20260;-77
2023/06/02 05:59:49;;;;;;;7.73;5.90;;;20.20;99.90;;;;;;4996009;28;20198;-77
2023/06/02 06:02:16;;;;;;;6.77;5.40;;;20.60;99.90;;;;;;5001046;28;20284;-77
2023/06/02 06:04:43;;;;;;;14.37;6.80;;;20.90;99.90;;;;;;4997488;28;20220;-77
2023/06/02 06:07:10;;;;;;;9.27;6.20;;;21.20;99.90;;;;;;4995161;28;20360;-77
2023/06/02 06:09:37;;;;;;;7.93;6.20;;;21.40;99.90;;;;;;4992576;28;20208;-77
2023/06/02 06:12:05;;;;;;;9.17;6.10;;;21.10;99.90;;;;;;4994336;28;20197;-77
2023/06/02 06:14:33;;;;;;;7.10;6.07;;;20.80;99.90;;;;;;4993089;28;20236;-77
2023/06/02 06:17:01;;;;;;;7.30;6.50;;;21.00;99.90;;;;;;5001241;28;20212;-77
2023/06/02 06:19:29;;;;;;;8.97;5.97;;;21.20;99.90;;;;;;4992434;28;20197;-77
2023/06/02 06:21:57;;;;;;;7.30;5.50;;;21.30;99.90;;;;;;4992078;28;20236;-77
2023/06/02 06:24:25;;;;;;;7.77;5.93;;;21.50;99.90;;;;;;4998429;28;20316;-77
2023/06/02 06:26:52;;;;;;;9.00;6.23;;;21.70;99.90;;;;;;4997664;28;20300;-77
2023/06/02 06:29:19;;;;;;;8.30;6.50;;;21.80;99.90;;;;;;4997813;28;20199;-77
2023/06/02 06:31:47;;;;;;;8.13;6.53;;;21.90;99.90;;;;;;4995426;28;20280;-77
2023/06/02 06:34:15;;;;;;;10.67;7.20;;;21.60;99.90;;;;;;4998606;28;20315;-77
2023/06/02 06:36:42;;;;;;;7.17;5.77;;;21.60;99.90;;;;;;4996491;28;20663;-77
2023/06/02 06:39:09;;;;;;;10.50;7.13;;;21.80;99.90;;;;;;5002251;28;20201;-77
2023/06/02 06:41:40;;;;;;;11.97;7.57;;;22.00;99.90;;;;;;5000032;28;20567;-77
2023/06/02 06:44:09;;;;;;;8.23;6.53;;;22.00;99.90;;;;;;4995751;28;20460;-77
2023/06/02 06:46:36;;;;;;;9.63;6.83;;;22.10;99.90;;;;;;5002191;28;20227;-76
2023/06/02 06:49:03;;;;;;;10.83;6.37;;;22.30;99.90;;;;;;4997629;28;20213;-77
2023/06/02 06:51:31;;;;;;;10.17;6.37;;;22.60;99.90;;;;;;5001190;28;20636;-77
2023/06/02 06:53:58;;;;;;;7.53;6.40;;;23.00;99.90;;;;;;4997524;28;20260;-77
2023/06/02 06:56:26;;;;;;;9.57;6.77;;;23.10;99.90;;;;;;5004409;28;20198;-77
2023/06/02 06:58:53;;;;;;;11.27;6.97;;;23.30;99.90;;;;;;5000101;28;20247;-77
2023/06/02 07:01:19;;;;;;;9.67;7.00;;;23.50;99.90;;;;;;4998975;28;20197;-77
2023/06/02 07:03:46;;;;;;;12.87;7.87;;;23.40;99.90;;;;;;5003774;28;20217;-77
2023/06/02 07:06:13;;;;;;;8.83;7.23;;;23.20;99.90;;;;;;5001450;28;20220;-77
2023/06/02 07:08:42;;;;;;;10.40;6.70;;;23.30;99.90;;;;;;4997225;28;20255;-78
2023/06/02 07:11:08;;;;;;;17.83;8.20;;;23.60;99.90;;;;;;5004059;28;20251;-77
2023/06/02 07:13:35;;;;;;;10.50;7.63;;;23.40;99.90;;;;;;4997617;28;20221;-77
2023/06/02 07:16:02;;;;;;;10.23;6.70;;;23.20;99.90;;;;;;4998110;28;20206;-77
2023/06/02 07:18:29;;;;;;;10.90;7.30;;;23.20;99.90;;;;;;4992710;28;20228;-77
2023/06/02 07:20:55;;;;;;;9.70;6.67;;;23.00;99.90;;;;;;4994256;28;20197;-78
2023/06/02 07:23:22;;;;;;;7.80;6.60;;;23.30;99.90;;;;;;4987434;28;20232;-77
2023/06/02 07:25:50;;;;;;;12.77;7.00;;;23.50;99.90;;;;;;4993907;28;20276;-77
2023/06/02 07:28:17;;;;;;;10.50;6.87;;;23.80;99.90;;;;;;4994390;28;20201;-77
2023/06/02 07:30:48;;;;;;;8.23;6.47;;;23.90;99.90;;;;;;4993123;28;20196;-77
2023/06/02 07:33:15;;;;;;;9.33;6.80;;;23.60;99.90;;;;;;4993886;28;20304;-77
2023/06/02 07:35:42;;;;;;;10.13;6.97;;;23.40;99.90;;;;;;4993736;28;20189;-77
2023/06/02 07:38:09;;;;;;;10.27;6.83;;;23.00;99.90;;;;;;4986721;28;20742;-77
2023/06/02 07:40:36;;;;;;;12.43;8.00;;;23.10;99.90;;;;;;4993914;28;20204;-77
2023/06/02 07:43:05;;;;;;;7.97;5.90;;;23.00;99.90;;;;;;4985342;28;20245;-77
2023/06/02 07:45:31;;;;;;;8.57;6.40;;;23.10;99.90;;;;;;5000262;28;20193;-77
2023/06/02 07:47:58;;;;;;;7.60;6.57;;;23.40;99.90;;;;;;4988273;28;20217;-77
2023/06/02 07:50:25;;;;;;;13.57;5.70;;;23.90;99.90;;;;;;4993775;28;20227;-77
2023/06/02 07:52:52;;;;;;;8.43;5.70;;;24.30;99.90;;;;;;4988220;28;20222;-77
2023/06/02 07:55:20;;;;;;;8.30;6.93;;;24.60;99.90;;;;;;4992310;28;20629;-77
2023/06/02 07:57:46;;;;;;;10.43;7.50;;;24.40;99.90;;;;;;4994070;28;20194;-77
2023/06/02 08:00:17;;;;;;;10.37;7.00;;;24.20;99.90;;;;;;4987502;28;20224;-77
2023/06/02 08:02:46;;;;;;;10.73;7.10;;;24.30;99.90;;;;;;4985348;28;20224;-77
2023/06/02 08:05:13;;;;;;;8.80;6.23;;;24.10;99.90;;;;;;4994059;28;20199;-76
2023/06/02 08:07:41;;;;;;;10.97;7.77;;;24.20;99.90;;;;;;4994593;28;20233;-77
2023/06/02 08:10:09;;;;;;;9.37;7.17;;;23.80;99.90;;;;;;4993859;28;20224;-80
2023/06/02 08:12:36;;;;;;;9.43;6.77;;;23.80;99.90;;;;;;4997136;28;20196;-80
2023/06/02 08:15:04;;;;;;;8.20;6.97;;;23.80;99.90;;;;;;4994434;28;20220;-79
2023/06/02 08:20:58;;;;;;;10.97;7.40;;;23.90;99.90;;;;;;4982555;28;20208;-80
2023/06/02 08:23:31;;;;;;;8.73;7.27;;;23.70;99.90;;;;;;4988319;28;20684;-80
2023/06/02 08:26:04;;;;;;;9.03;7.57;;;24.00;99.90;;;;;;4988685;28;20244;-80
2023/06/02 08:28:35;;;;;;;10.57;8.00;;;24.10;99.90;;;;;;4989917;28;20256;-79
2023/06/02 08:31:02;;;;;;;11.53;7.03;;;23.20;99.90;;;;;;5003670;28;20240;-79
2023/06/02 08:33:35;;;;;;;7.27;5.93;;;23.60;99.90;;;;;;4994474;28;20225;-79
2023/06/02 08:36:06;;;;;;;9.40;6.77;;;24.30;99.90;;;;;;4991766;28;20198;-79
2023/06/02 08:38:33;;;;;;;10.10;8.33;;;24.50;99.90;;;;;;4989302;28;20668;-78
2023/06/02 08:41:00;;;;;;;8.90;7.10;;;24.30;99.90;;;;;;4992094;28;20236;-79
2023/06/02 08:43:26;;;;;;;12.00;8.53;;;24.40;99.90;;;;;;4996099;28;20647;-79
2023/06/02 08:45:56;;;;;;;14.83;8.13;;;23.80;99.90;;;;;;4995704;28;20269;-79
2023/06/02 08:48:23;;;;;;;8.43;6.13;;;24.00;99.90;;;;;;4992488;28;20316;-79
2023/06/02 08:50:54;;;;;;;8.93;6.30;;;24.40;99.90;;;;;;4994302;28;20228;-79
2023/06/02 08:53:24;;;;;;;8.33;6.90;;;25.20;99.90;;;;;;4993375;28;20720;-79
2023/06/02 08:55:52;;;;;;;11.73;6.97;;;25.10;99.90;;;;;;4990510;28;20201;-80
2023/06/02 08:58:18;;;;;;;11.20;7.20;;;25.10;99.90;;;;;;4995123;28;20197;-80
2023/06/02 09:00:45;;;;;;;9.03;6.87;;;24.80;99.90;;;;;;4988097;28;20214;-79
2023/06/02 09:03:14;;;;;;;10.53;6.80;;;25.00;99.90;;;;;;4990317;28;20237;-79
2023/06/02 09:05:43;;;;;;;8.67;6.63;;;25.20;99.90;;;;;;4990836;28;20201;-80
2023/06/02 09:08:13;;;;;;;11.20;7.70;;;25.30;99.90;;;;;;4994531;28;20217;-79
2023/06/02 09:10:41;;;;;;;9.80;7.10;;;25.50;99.90;;;;;;4994139;28;20201;-80
2023/06/02 09:13:09;;;;;;;9.53;7.60;;;25.40;99.90;;;;;;4994895;28;20347;-80
2023/06/02 09:15:36;;;;;;;10.27;6.97;;;25.30;99.90;;;;;;4993535;28;20197;-80
2023/06/02 09:18:11;;;;;;;10.40;6.90;;;25.10;99.90;;;;;;4990575;28;20288;-79
2023/06/02 09:20:39;;;;;;;12.07;7.47;;;24.90;99.90;;;;;;4987607;28;20203;-81
2023/06/02 09:23:06;;;;;;;10.63;7.37;;;24.30;99.90;;;;;;4987355;28;20218;-79
2023/06/02 09:25:38;;;;;;;9.43;7.50;;;24.90;99.90;;;;;;4988358;28;20285;-81
2023/06/02 09:28:05;;;;;;;8.40;6.27;;;24.60;99.90;;;;;;4994009;28;20318;-80
2023/06/02 09:30:31;;;;;;;10.13;7.77;;;24.80;99.90;;;;;;4992654;28;20229;-80
2023/06/02 09:33:00;;;;;;;10.83;7.90;;;25.00;99.90;;;;;;4993897;28;20731;-79
2023/06/02 09:35:34;;;;;;;8.47;7.10;;;25.60;99.90;;;;;;4995336;28;20221;-79
2023/06/02 09:38:01;;;;;;;10.23;6.50;;;25.40;99.90;;;;;;4995375;28;20284;-80
2023/06/02 09:40:28;;;;;;;9.23;8.00;;;25.80;99.90;;;;;;4992049;28;20205;-80
2023/06/02 09:42:57;;;;;;;10.33;9.23;;;26.20;99.90;;;;;;4991152;28;20209;-80
2023/06/02 09:45:24;;;;;;;9.37;8.50;;;26.30;99.90;;;;;;4993998;28;20582;-80
2023/06/02 09:47:51;;;;;;;12.87;10.80;;;25.20;99.90;;;;;;4993837;28;20596;-80
2023/06/02 09:50:35;;;;;;;9.87;8.87;;;25.10;99.90;;;;;;4995313;28;20229;-80
2023/06/02 09:53:04;;;;;;;8.93;8.03;;;25.10;99.90;;;;;;4992143;28;20296;-80
2023/06/02 09:55:33;;;;;;;10.03;9.13;;;25.40;99.90;;;;;;4995232;28;20190;-81
2023/06/02 09:58:01;;;;;;;9.37;8.17;;;25.60;99.90;;;;;;4994877;28;20193;-79
2023/06/02 10:00:28;;;;;;;12.27;10.27;;;25.60;99.90;;;;;;4995002;28;20260;-80
2023/06/02 10:02:55;;;;;;;9.40;8.50;;;25.30;99.90;;;;;;4995139;28;20224;-80
2023/06/02 10:05:22;;;;;;;10.13;9.13;;;25.50;99.90;;;;;;4993877;28;20299;-79
2023/06/02 10:08:05;;;;;;;8.70;5.60;;;25.60;99.90;;;;;;4995100;28;20610;-80
2023/06/02 10:10:42;;;;;;;8.47;5.27;;;25.70;99.90;;;;;;4986285;28;20216;-80
2023/06/02 10:13:28;;;;;;;7.20;5.60;;;26.10;99.90;;;;;;4995212;28;20216;-79
2023/06/02 10:16:17;;;;;;;7.43;6.20;;;26.30;99.90;;;;;;4991910;28;20691;-80
2023/06/02 10:19:28;;;;;;;8.60;6.30;;;25.80;99.90;;;;;;4995245;28;20193;-79
2023/06/02 10:22:12;;;;;;;8.63;6.57;;;25.70;99.50;;;;;;4988330;28;20683;-79
2023/06/02 10:24:50;;;;;;;8.10;7.37;;;25.70;99.90;;;;;;4993352;28;20228;-79
2023/06/02 10:27:27;;;;;;;9.30;6.70;;;25.80;99.90;;;;;;4994782;28;20271;-80
2023/06/02 10:29:56;;;;;;;7.93;6.10;;;25.30;99.40;;;;;;4994816;28;20227;-80
2023/06/02 10:32:24;;;;;;;12.37;8.63;;;25.10;99.90;;;;;;4994670;28;20209;-80
2023/06/02 10:34:52;;;;;;;8.00;6.57;;;24.10;99.90;;;;;;4994648;28;20197;-80
2023/06/02 10:37:20;;;;;;;10.00;8.10;;;24.10;99.90;;;;;;4991824;28;20197;-80
2023/06/02 10:39:52;;;;;;;9.37;8.47;;;24.40;99.90;;;;;;4990368;28;20655;-79
2023/06/02 10:42:21;;;;;;;9.60;8.60;;;24.70;99.90;;;;;;4994451;28;20203;-79
2023/06/02 10:44:48;;;;;;;8.20;6.60;;;24.90;99.90;;;;;;4994870;28;20200;-79
2023/06/02 10:47:36;;;;;;;6.43;5.83;;;24.80;99.90;;;;;;4987003;28;20312;-80
2023/06/02 10:50:05;;;;;;;6.80;6.03;;;25.10;99.90;;;;;;4987119;28;20212;-79
2023/06/02 10:52:33;;;;;;;7.93;6.37;;;25.20;99.90;;;;;;4983466;28;20199;-80
2023/06/02 10:55:28;;;;;;;8.17;6.20;;;25.10;99.90;;;;;;4993316;28;20684;-79
2023/06/02 10:57:56;;;;;;;7.97;6.60;;;25.00;99.90;;;;;;4992241;28;20210;-80
2023/06/02 11:00:43;;;;;;;8.73;7.13;;;24.90;99.90;;;;;;4994655;28;20205;-79
2023/06/02 11:03:32;;;;;;;6.93;5.03;;;24.60;99.90;;;;;;4994206;28;20726;-80
2023/06/02 11:06:21;;;;;;;7.90;5.13;;;24.30;99.90;;;;;;4993764;28;20289;-80
2023/06/02 11:08:53;;;;;;;8.73;7.83;;;24.40;99.90;;;;;;4988404;28;20216;-78
2023/06/02 11:11:50;;;;;;;8.90;8.00;;;24.10;99.90;;;;;;4994789;28;20201;-80
2023/06/02 11:14:17;;;;;;;10.97;9.87;;;24.00;99.90;;;;;;4991055;28;20221;-80
2023/06/02 11:16:43;;;;;;;8.93;7.60;;;24.10;99.80;;;;;;4993263;28;20232;-78
2023/06/02 11:19:12;;;;;;;8.43;7.63;;;24.00;99.90;;;;;;4995754;28;20201;-78
2023/06/02 11:21:39;;;;;;;9.40;6.13;;;23.70;99.90;;;;;;4991740;28;20342;-78
2023/06/02 11:24:08;;;;;;;10.10;8.50;;;23.80;99.90;;;;;;4992314;28;20225;-78
2023/06/02 11:26:48;;;;;;;7.40;4.83;;;23.80;99.90;;;;;;4997469;28;20235;-78
2023/06/02 11:29:17;;;;;;;7.47;5.13;;;24.20;99.90;;;;;;4999205;28;20231;-79
2023/06/02 11:31:50;;;;;;;6.07;5.17;;;24.10;99.90;;;;;;4996664;28;20749;-80
2023/06/02 11:34:18;;;;;;;8.33;5.90;;;24.10;99.90;;;;;;5001845;28;20743;-78
2023/06/02 11:36:48;;;;;;;8.63;5.83;;;23.80;99.90;;;;;;4998289;28;20205;-81
2023/06/02 11:39:15;;;;;;;7.67;5.93;;;23.60;99.90;;;;;;4993093;28;20296;-79
2023/06/02 11:41:55;;;;;;;7.80;5.30;;;23.70;99.90;;;;;;4999790;28;20553;-80
2023/06/02 11:44:22;;;;;;;10.13;7.40;;;23.60;99.90;;;;;;4999107;28;20299;-79
2023/06/02 11:46:49;;;;;;;8.20;5.53;;;23.50;99.90;;;;;;4991074;28;20201;-79
2023/06/02 11:49:16;;;;;;;10.93;8.23;;;23.50;99.90;;;;;;4998797;28;20748;-79
2023/06/02 11:51:44;;;;;;;9.07;8.17;;;23.20;99.90;;;;;;4992353;28;20637;-82
2023/06/02 11:54:11;;;;;;;9.70;8.80;;;23.30;99.90;;;;;;4990541;28;20647;-79
2023/06/02 11:56:38;;;;;;;7.63;5.47;;;23.30;99.90;;;;;;4993798;28;20193;-80
2023/06/02 11:59:04;;;;;;;10.23;9.20;;;23.30;99.90;;;;;;4995335;28;20208;-79
2023/06/02 12:01:32;;;;;;;7.33;5.33;;;23.30;99.90;;;;;;4994597;28;20189;-80
2023/06/02 12:04:04;;;;;;;8.10;5.67;;;23.20;99.90;;;;;;4997747;28;20228;-79
2023/06/02 12:06:32;;;;;;;9.60;7.30;;;23.50;99.90;;;;;;4997513;28;20326;-77
2023/06/02 12:09:11;;;;;;;7.23;6.57;;;23.40;99.90;;;;;;5004175;28;20217;-77
2023/06/02 12:11:38;;;;;;;8.20;7.40;;;23.60;99.90;;;;;;4996707;28;20208;-77
2023/06/02 12:14:07;;;;;;;7.73;7.07;;;23.50;99.90;;;;;;4995989;28;20241;-77
2023/06/02 12:16:37;;;;;;;7.47;6.73;;;23.40;99.90;;;;;;4995958;28;20239;-76
2023/06/02 12:19:15;;;;;;;10.77;6.93;;;23.50;99.90;;;;;;4996535;28;20197;-77
2023/06/02 12:21:43;;;;;;;8.17;7.37;;;23.30;99.90;;;;;;4987107;28;20202;-77
2023/06/02 12:24:11;;;;;;;7.80;7.00;;;23.50;99.90;;;;;;4996893;28;20224;-77
2023/06/02 12:26:42;;;;;;;7.33;6.63;;;23.50;99.90;;;;;;4995911;28;20205;-77
2023/06/02 12:29:09;;;;;;;8.93;6.63;;;23.60;99.90;;;;;;4996392;28;20240;-77
2023/06/02 12:31:37;;;;;;;6.70;6.07;;;23.40;99.90;;;;;;4996715;28;20229;-77
2023/06/02 12:34:06;;;;;;;9.73;6.77;;;23.50;99.90;;;;;;4996538;28;20786;-77
2023/06/02 12:36:33;;;;;;;8.73;6.67;;;23.50;99.90;;;;;;4994886;28;20260;-77
2023/06/02 12:39:00;;;;;;;7.00;6.30;;;23.40;99.90;;;;;;4996864;28;20190;-77
2023/06/02 12:41:28;;;;;;;7.23;6.60;;;23.40;99.90;;;;;;4996163;28;20189;-76
2023/06/02 12:43:55;;;;;;;7.70;6.90;;;23.40;99.90;;;;;;4995843;28;20209;-76
2023/06/02 12:46:22;;;;;;;7.43;6.73;;;23.40;99.90;;;;;;4994575;28;20578;-77
2023/06/02 12:48:49;;;;;;;7.83;6.83;;;23.50;99.90;;;;;;4996398;28;20232;-77
2023/06/02 12:51:16;;;;;;;6.67;5.10;;;23.50;99.90;;;;;;4996477;28;20252;-77
2023/06/02 12:53:43;;;;;;;6.00;5.10;;;23.70;99.90;;;;;;4994614;28;20229;-77
2023/06/02 12:56:10;;;;;;;7.37;5.87;;;23.70;99.90;;;;;;4996765;28;20201;-77
2023/06/02 12:58:38;;;;;;;5.93;5.33;;;23.40;99.90;;;;;;4989936;28;20194;-77